Time;durP1;ratioP1;P1;durP2;ratioP2;P2;SDS_P1;SDS_P2;PMS_P1;PMS_P2;Temp;Humidity;BMP_temperature;BMP_pressure;BME280_temperature;BME280_humidity;BME280_pressure;Samples;Min_cycle;Max_cycle;Signal;HPM_P1;HPM_P2
2021/09/27 00:00:26;;;;;;;19.73;16.73;;;;;;;;;;5010783;28;20673;-72
2021/09/27 00:02:52;;;;;;;19.50;15.30;;;;;;;;;;5013130;28;20300;-72
2021/09/27 00:05:18;;;;;;;19.02;15.98;;;;;;;;;;5010502;28;20820;-71
2021/09/27 00:07:44;;;;;;;20.35;14.77;;;;;;;;;;5019294;28;20225;-69
2021/09/27 00:10:10;;;;;;;17.58;15.77;;;;;;;;;;5012995;28;20608;-72
2021/09/27 00:12:36;;;;;;;16.38;14.68;;;;;;;;;;5015589;28;20216;-71
2021/09/27 00:15:03;;;;;;;17.08;15.30;;;;;;;;;;4989803;28;20188;-71
2021/09/27 00:17:28;;;;;;;17.83;15.35;;;;;;;;;;4995273;28;20197;-71
2021/09/27 00:19:53;;;;;;;19.02;15.60;;;;;;;;;;5005388;28;20195;-71
2021/09/27 00:22:18;;;;;;;18.58;14.95;;;;;;;;;;4999801;28;20181;-71
2021/09/27 00:24:44;;;;;;;17.10;15.25;;;;;;;;;;5000071;28;20194;-71
2021/09/27 00:27:09;;;;;;;16.38;14.65;;;;;;;;;;4999072;28;20280;-71
2021/09/27 00:29:34;;;;;;;20.33;15.30;;;;;;;;;;5000219;28;20226;-71
2021/09/27 00:31:59;;;;;;;17.35;15.07;;;;;;;;;;4999764;28;20179;-71
2021/09/27 00:34:25;;;;;;;21.15;15.68;;;;;;;;;;5007994;28;20230;-72
2021/09/27 00:36:50;;;;;;;16.38;14.25;;;;;;;;;;5011583;28;20186;-72
2021/09/27 00:39:15;;;;;;;18.40;14.98;;;;;;;;;;5011603;28;20706;-72
2021/09/27 00:41:40;;;;;;;15.05;13.45;;;;;;;;;;5011351;28;20179;-72
2021/09/27 00:44:06;;;;;;;20.08;15.70;;;;;;;;;;5009868;28;20190;-72
2021/09/27 00:46:32;;;;;;;19.45;16.17;;;;;;;;;;5010768;28;20269;-72
2021/09/27 00:48:57;;;;;;;20.27;16.55;;;;;;;;;;5009707;28;20195;-71
2021/09/27 00:51:24;;;;;;;16.75;15.05;;;;;;;;;;5011541;28;20194;-72
2021/09/27 00:53:51;;;;;;;19.20;15.80;;;;;;;;;;5012508;28;20580;-71
2021/09/27 00:56:19;;;;;;;23.52;16.48;;;;;;;;;;5008298;28;20646;-72
2021/09/27 00:58:46;;;;;;;17.40;14.88;;;;;;;;;;5012045;28;20585;-72
2021/09/27 01:01:11;;;;;;;22.70;16.25;;;;;;;;;;5010863;28;20202;-70
2021/09/27 01:03:36;;;;;;;19.58;15.20;;;;;;;;;;5010276;28;20171;-72
2021/09/27 01:06:13;;;;;;;20.42;16.85;;;;;;;;;;5011273;28;20187;-70
2021/09/27 01:08:45;;;;;;;17.30;15.32;;;;;;;;;;5007526;28;20210;-70
2021/09/27 01:11:11;;;;;;;18.95;16.67;;;;;;;;;;5007825;28;20244;-73
2021/09/27 01:13:39;;;;;;;20.08;16.70;;;;;;;;;;5009741;28;20218;-72
2021/09/27 01:16:12;;;;;;;21.67;16.55;;;;;;;;;;5008060;28;20233;-72
2021/09/27 01:18:37;;;;;;;22.00;18.25;;;;;;;;;;5008036;28;20195;-72
2021/09/27 01:21:26;;;;;;;20.75;17.20;;;;;;;;;;5003901;28;20197;-71
2021/09/27 01:23:51;;;;;;;21.02;16.85;;;;;;;;;;4998551;28;20482;-72
2021/09/27 01:26:19;;;;;;;24.35;18.30;;;;;;;;;;4996115;28;20182;-71
2021/09/27 01:28:44;;;;;;;24.00;18.63;;;;;;;;;;4996614;28;20446;-69
2021/09/27 01:31:39;;;;;;;21.63;17.58;;;;;;;;;;4996568;28;20187;-72
2021/09/27 01:34:10;;;;;;;21.98;18.10;;;;;;;;;;4963400;28;20462;-71
2021/09/27 01:36:51;;;;;;;23.95;18.35;;;;;;;;;;5003084;28;20651;-70
2021/09/27 01:39:24;;;;;;;23.05;18.67;;;;;;;;;;4996678;28;20368;-71
2021/09/27 01:41:54;;;;;;;23.67;18.77;;;;;;;;;;4996931;28;20222;-72
2021/09/27 01:44:20;;;;;;;23.13;18.75;;;;;;;;;;4998120;28;20540;-72
2021/09/27 01:46:55;;;;;;;25.42;18.13;;;;;;;;;;4996709;28;20775;-71
2021/09/27 01:49:21;;;;;;;24.70;18.52;;;;;;;;;;4997484;28;20458;-70
2021/09/27 01:51:50;;;;;;;25.02;17.98;;;;;;;;;;4996676;28;20266;-70
2021/09/27 01:54:24;;;;;;;22.08;18.27;;;;;;;;;;4998394;28;20199;-70
2021/09/27 01:57:09;;;;;;;21.98;17.70;;;;;;;;;;4996355;28;20187;-70
2021/09/27 01:59:37;;;;;;;23.50;18.05;;;;;;;;;;4998872;28;20726;-70
2021/09/27 02:02:22;;;;;;;20.63;16.95;;;;;;;;;;4995829;28;20601;-70
2021/09/27 02:04:52;;;;;;;23.85;17.33;;;;;;;;;;4997949;28;20282;-71
2021/09/27 02:07:19;;;;;;;24.27;17.90;;;;;;;;;;4996737;28;20198;-71
2021/09/27 02:09:55;;;;;;;22.58;17.85;;;;;;;;;;4994527;28;20223;-71
2021/09/27 02:12:23;;;;;;;22.02;17.10;;;;;;;;;;4995599;28;20699;-71
2021/09/27 02:15:00;;;;;;;26.45;19.15;;;;;;;;;;4999609;28;20183;-71
2021/09/27 02:17:34;;;;;;;26.10;19.00;;;;;;;;;;4995658;28;20617;-70
2021/09/27 02:20:06;;;;;;;24.48;18.02;;;;;;;;;;5002207;28;20188;-71
2021/09/27 02:22:38;;;;;;;23.10;19.02;;;;;;;;;;4996096;28;20232;-70
2021/09/27 02:25:18;;;;;;;27.88;19.27;;;;;;;;;;4997011;28;20178;-70
2021/09/27 02:27:44;;;;;;;26.33;19.13;;;;;;;;;;4996597;28;20190;-70
2021/09/27 02:30:12;;;;;;;23.17;19.23;;;;;;;;;;4997972;28;20218;-70
2021/09/27 02:32:39;;;;;;;29.13;18.73;;;;;;;;;;4996812;28;20321;-71
2021/09/27 02:35:15;;;;;;;25.05;18.80;;;;;;;;;;5008949;28;20214;-70
2021/09/27 02:37:43;;;;;;;24.13;19.58;;;;;;;;;;5007904;28;20167;-70
2021/09/27 02:40:23;;;;;;;27.85;19.20;;;;;;;;;;5009970;28;20258;-70
2021/09/27 02:42:48;;;;;;;25.45;19.67;;;;;;;;;;5015483;28;20599;-70
2021/09/27 02:45:14;;;;;;;29.85;20.38;;;;;;;;;;5015014;28;20197;-70
2021/09/27 02:47:46;;;;;;;26.08;19.45;;;;;;;;;;5018094;28;20412;-70
2021/09/27 02:50:13;;;;;;;30.38;19.23;;;;;;;;;;5014358;28;20187;-70
2021/09/27 02:52:38;;;;;;;28.88;21.45;;;;;;;;;;5017248;28;20207;-70
2021/09/27 02:55:06;;;;;;;25.17;19.42;;;;;;;;;;5014605;28;20258;-70
2021/09/27 02:57:34;;;;;;;26.65;20.35;;;;;;;;;;5013307;28;20175;-71
2021/09/27 03:00:01;;;;;;;27.77;20.42;;;;;;;;;;5008939;28;20203;-70
2021/09/27 03:02:39;;;;;;;26.63;20.17;;;;;;;;;;5011665;28;20183;-70
2021/09/27 03:05:04;;;;;;;26.35;20.35;;;;;;;;;;5011171;28;20213;-70
2021/09/27 03:07:38;;;;;;;31.48;22.35;;;;;;;;;;5012673;28;20210;-71
2021/09/27 03:10:15;;;;;;;28.85;21.02;;;;;;;;;;5008241;28;20194;-71
2021/09/27 03:12:40;;;;;;;31.13;22.52;;;;;;;;;;5011539;28;20205;-72
2021/09/27 03:15:24;;;;;;;35.05;23.40;;;;;;;;;;5014435;28;20257;-72
2021/09/27 03:17:59;;;;;;;30.60;21.67;;;;;;;;;;5008851;28;20661;-71
2021/09/27 03:20:38;;;;;;;29.65;21.73;;;;;;;;;;5008622;28;20788;-71
2021/09/27 03:23:09;;;;;;;30.02;22.73;;;;;;;;;;4998542;28;20819;-71
2021/09/27 03:25:49;;;;;;;28.85;21.42;;;;;;;;;;5000505;28;20179;-71
2021/09/27 03:28:15;;;;;;;33.42;23.05;;;;;;;;;;4995869;28;20373;-70
2021/09/27 03:30:52;;;;;;;30.57;22.00;;;;;;;;;;5001137;28;20203;-71
2021/09/27 03:33:33;;;;;;;27.38;20.38;;;;;;;;;;5001121;28;20463;-71
2021/09/27 03:36:11;;;;;;;36.65;22.48;;;;;;;;;;5002132;28;20250;-71
2021/09/27 03:38:49;;;;;;;28.67;21.08;;;;;;;;;;5000986;28;20198;-71
2021/09/27 03:41:20;;;;;;;34.28;21.50;;;;;;;;;;4998834;28;20861;-71
2021/09/27 03:43:52;;;;;;;26.13;20.58;;;;;;;;;;4999713;28;20178;-71
2021/09/27 03:46:37;;;;;;;29.80;20.52;;;;;;;;;;4997589;28;20280;-71
2021/09/27 03:49:06;;;;;;;36.70;22.90;;;;;;;;;;4999829;28;20285;-72
2021/09/27 03:51:33;;;;;;;28.00;21.58;;;;;;;;;;4999883;28;20215;-71
2021/09/27 03:54:04;;;;;;;27.90;20.48;;;;;;;;;;4998044;28;20198;-71
2021/09/27 03:56:29;;;;;;;31.23;21.67;;;;;;;;;;4998355;28;20178;-71
2021/09/27 03:59:02;;;;;;;28.30;21.13;;;;;;;;;;5003713;28;20208;-70
2021/09/27 04:01:38;;;;;;;36.53;23.77;;;;;;;;;;5011676;28;20482;-71
2021/09/27 04:04:04;;;;;;;33.88;23.60;;;;;;;;;;5001369;28;20261;-71
2021/09/27 04:06:32;;;;;;;31.67;21.23;;;;;;;;;;5000154;28;20190;-72
2021/09/27 04:09:09;;;;;;;32.83;21.73;;;;;;;;;;4996462;28;20222;-71
2021/09/27 04:11:55;;;;;;;33.97;22.23;;;;;;;;;;4997660;28;20690;-72
2021/09/27 04:14:36;;;;;;;35.35;24.30;;;;;;;;;;4998662;28;20228;-71
2021/09/27 04:17:15;;;;;;;35.13;24.05;;;;;;;;;;4997697;28;20276;-71
2021/09/27 04:19:47;;;;;;;32.55;22.60;;;;;;;;;;5001278;28;20202;-72
2021/09/27 04:22:21;;;;;;;41.78;25.63;;;;;;;;;;4998516;28;20230;-71
2021/09/27 04:24:52;;;;;;;41.67;23.98;;;;;;;;;;5000781;28;20540;-72
2021/09/27 04:27:17;;;;;;;44.13;26.60;;;;;;;;;;4999253;28;21640;-72
2021/09/27 04:29:51;;;;;;;35.30;24.70;;;;;;;;;;4997005;28;20273;-70
2021/09/27 04:32:31;;;;;;;40.03;25.58;;;;;;;;;;4999061;28;20425;-71
2021/09/27 04:35:11;;;;;;;37.75;25.23;;;;;;;;;;5010634;28;20245;-72
2021/09/27 04:37:38;;;;;;;35.55;24.27;;;;;;;;;;5010432;28;20225;-72
2021/09/27 04:40:04;;;;;;;37.17;24.02;;;;;;;;;;5011289;28;20685;-71
2021/09/27 04:42:49;;;;;;;37.80;24.17;;;;;;;;;;5003861;28;20205;-71
2021/09/27 04:45:33;;;;;;;36.60;23.30;;;;;;;;;;5010072;28;20500;-71
2021/09/27 04:48:06;;;;;;;35.47;24.13;;;;;;;;;;5006442;28;20199;-71
2021/09/27 04:50:49;;;;;;;39.42;25.80;;;;;;;;;;5007490;28;20184;-72
2021/09/27 04:53:15;;;;;;;42.47;25.60;;;;;;;;;;5011318;28;20218;-70
2021/09/27 04:55:46;;;;;;;42.33;25.88;;;;;;;;;;5010141;28;20186;-70
2021/09/27 04:58:17;;;;;;;38.90;25.92;;;;;;;;;;5007859;28;20202;-70
2021/09/27 05:00:58;;;;;;;38.75;25.55;;;;;;;;;;5009200;28;20171;-70
2021/09/27 05:03:37;;;;;;;39.78;25.35;;;;;;;;;;4997601;28;20811;-70
2021/09/27 05:06:02;;;;;;;43.33;25.80;;;;;;;;;;4997501;28;20904;-70
2021/09/27 05:08:27;;;;;;;36.37;26.03;;;;;;;;;;4997169;28;20603;-70
2021/09/27 05:11:09;;;;;;;43.47;25.48;;;;;;;;;;4999119;28;20476;-70
2021/09/27 05:13:52;;;;;;;40.60;24.85;;;;;;;;;;4997649;28;20211;-70
2021/09/27 05:16:36;;;;;;;41.50;26.67;;;;;;;;;;5000295;28;20553;-71
2021/09/27 05:19:01;;;;;;;42.25;24.65;;;;;;;;;;4998336;28;20194;-71
2021/09/27 05:21:27;;;;;;;43.05;26.08;;;;;;;;;;4999992;28;20218;-69
2021/09/27 05:24:14;;;;;;;39.50;25.67;;;;;;;;;;4996563;28;20433;-70
2021/09/27 05:26:42;;;;;;;39.25;25.33;;;;;;;;;;4998951;28;21211;-70
2021/09/27 05:29:23;;;;;;;41.92;25.77;;;;;;;;;;4995784;28;20230;-71
2021/09/27 05:31:57;;;;;;;36.22;24.08;;;;;;;;;;4997406;28;20257;-70
2021/09/27 05:34:41;;;;;;;38.33;24.67;;;;;;;;;;4999275;28;20222;-71
2021/09/27 05:37:15;;;;;;;39.70;24.42;;;;;;;;;;5000478;28;20291;-71
2021/09/27 05:39:41;;;;;;;44.65;25.90;;;;;;;;;;4999216;28;20202;-72
2021/09/27 05:42:20;;;;;;;43.50;26.05;;;;;;;;;;4998362;28;20183;-72
2021/09/27 05:44:54;;;;;;;39.60;25.33;;;;;;;;;;4998680;28;20944;-69
2021/09/27 05:47:37;;;;;;;41.40;27.73;;;;;;;;;;4998649;28;20424;-69
2021/09/27 05:50:08;;;;;;;38.65;26.83;;;;;;;;;;4999103;28;20220;-69
2021/09/27 05:52:43;;;;;;;38.85;25.65;;;;;;;;;;4997516;28;20245;-70
2021/09/27 05:55:11;;;;;;;39.88;24.80;;;;;;;;;;4999399;28;20191;-69
2021/09/27 05:57:38;;;;;;;39.35;24.95;;;;;;;;;;4997650;28;20179;-70
2021/09/27 06:00:21;;;;;;;47.20;28.00;;;;;;;;;;4997954;28;20733;-70
2021/09/27 06:02:46;;;;;;;38.00;24.40;;;;;;;;;;5001682;28;20261;-70
2021/09/27 06:05:15;;;;;;;42.50;25.35;;;;;;;;;;4998256;28;20650;-71
2021/09/27 06:07:46;;;;;;;35.25;23.63;;;;;;;;;;4997752;28;20665;-71
2021/09/27 06:10:15;;;;;;;34.28;24.63;;;;;;;;;;4995567;28;20178;-72
2021/09/27 06:12:55;;;;;;;39.17;24.70;;;;;;;;;;4999539;28;20242;-72
2021/09/27 06:15:25;;;;;;;35.05;24.33;;;;;;;;;;4997000;28;20185;-70
2021/09/27 06:18:04;;;;;;;34.40;23.45;;;;;;;;;;4998054;28;20186;-72
2021/09/27 06:20:33;;;;;;;32.78;24.05;;;;;;;;;;4993477;28;20217;-71
2021/09/27 06:23:01;;;;;;;32.15;23.15;;;;;;;;;;5011344;28;20178;-71
2021/09/27 06:25:46;;;;;;;34.25;23.38;;;;;;;;;;4998173;28;20685;-71
2021/09/27 06:28:11;;;;;;;27.75;21.42;;;;;;;;;;4997651;28;20237;-71
2021/09/27 06:30:37;;;;;;;26.60;20.70;;;;;;;;;;5000377;28;20209;-71
2021/09/27 06:33:25;;;;;;;28.58;20.90;;;;;;;;;;5000847;28;20460;-70
2021/09/27 06:35:52;;;;;;;31.75;19.40;;;;;;;;;;5010709;28;20914;-71
2021/09/27 06:38:18;;;;;;;26.25;19.25;;;;;;;;;;5010174;28;20195;-71
2021/09/27 06:40:46;;;;;;;23.42;19.58;;;;;;;;;;5010303;28;20290;-69
2021/09/27 06:43:15;;;;;;;22.27;19.02;;;;;;;;;;5005096;28;20183;-71
2021/09/27 06:45:40;;;;;;;23.67;17.85;;;;;;;;;;5005222;28;20193;-71
2021/09/27 06:48:05;;;;;;;25.60;17.93;;;;;;;;;;5009311;28;20590;-71
2021/09/27 06:50:30;;;;;;;21.63;17.17;;;;;;;;;;5008106;28;20428;-71
2021/09/27 06:52:55;;;;;;;23.20;16.23;;;;;;;;;;5009355;28;20207;-69
2021/09/27 06:55:21;;;;;;;21.65;17.02;;;;;;;;;;5007810;28;20179;-70
2021/09/27 06:57:46;;;;;;;19.02;16.13;;;;;;;;;;5007787;28;20572;-70
2021/09/27 07:00:14;;;;;;;19.45;16.00;;;;;;;;;;5007630;28;20189;-70
2021/09/27 07:02:39;;;;;;;19.58;16.48;;;;;;;;;;5006779;28;20175;-70
2021/09/27 07:05:07;;;;;;;18.10;16.25;;;;;;;;;;5008000;28;20179;-70
2021/09/27 07:07:32;;;;;;;21.40;16.42;;;;;;;;;;5006990;28;20210;-70
2021/09/27 07:09:57;;;;;;;29.37;18.60;;;;;;;;;;5007614;28;20315;-70
2021/09/27 07:12:22;;;;;;;22.17;16.90;;;;;;;;;;5009196;28;20503;-70
2021/09/27 07:14:47;;;;;;;22.02;16.67;;;;;;;;;;5008879;28;20429;-70
2021/09/27 07:17:12;;;;;;;19.40;15.70;;;;;;;;;;5009495;28;20189;-70
2021/09/27 07:19:40;;;;;;;18.73;16.27;;;;;;;;;;5006531;28;20444;-71
2021/09/27 07:22:05;;;;;;;18.60;15.38;;;;;;;;;;4998540;28;20810;-70
2021/09/27 07:24:30;;;;;;;16.25;14.63;;;;;;;;;;4997185;28;20183;-71
2021/09/27 07:26:55;;;;;;;20.55;16.27;;;;;;;;;;4992446;28;20187;-71
2021/09/27 07:29:21;;;;;;;17.43;14.60;;;;;;;;;;5000099;28;20218;-70
2021/09/27 07:31:47;;;;;;;19.45;15.35;;;;;;;;;;4997968;28;20431;-70
2021/09/27 07:34:12;;;;;;;18.55;16.45;;;;;;;;;;4997677;28;20206;-70
2021/09/27 07:36:37;;;;;;;16.30;14.70;;;;;;;;;;5000363;28;20261;-70
2021/09/27 07:39:04;;;;;;;15.95;14.27;;;;;;;;;;5000224;28;20459;-72
2021/09/27 07:41:29;;;;;;;16.70;14.32;;;;;;;;;;5000660;28;20656;-69
2021/09/27 07:43:55;;;;;;;14.80;13.30;;;;;;;;;;5001085;28;20187;-69
2021/09/27 07:46:21;;;;;;;15.43;13.38;;;;;;;;;;4998577;28;20206;-71
2021/09/27 07:48:47;;;;;;;18.70;14.18;;;;;;;;;;4998995;28;20854;-71
2021/09/27 07:51:12;;;;;;;16.35;14.27;;;;;;;;;;5001039;28;20740;-72
2021/09/27 07:53:37;;;;;;;16.58;14.40;;;;;;;;;;4999630;28;20218;-69
2021/09/27 07:56:03;;;;;;;15.60;13.97;;;;;;;;;;4999451;28;20536;-70
2021/09/27 07:58:28;;;;;;;17.98;14.07;;;;;;;;;;5001850;28;20452;-70
2021/09/27 08:00:53;;;;;;;15.75;13.68;;;;;;;;;;5001832;28;20187;-72
2021/09/27 08:03:19;;;;;;;18.60;14.88;;;;;;;;;;4999415;28;20174;-71
2021/09/27 08:05:44;;;;;;;15.93;14.32;;;;;;;;;;4999828;28;20191;-70
2021/09/27 08:08:09;;;;;;;20.67;14.65;;;;;;;;;;5014244;23;20214;-71
2021/09/27 08:10:35;;;;;;;15.65;14.02;;;;;;;;;;5019413;28;20886;-72
2021/09/27 08:13:01;;;;;;;15.77;12.88;;;;;;;;;;5019826;28;20305;-71
2021/09/27 08:15:28;;;;;;;15.32;13.65;;;;;;;;;;5015559;28;20548;-72
2021/09/27 08:17:54;;;;;;;16.17;12.93;;;;;;;;;;5015621;28;20182;-71
2021/09/27 08:20:24;;;;;;;15.52;13.90;;;;;;;;;;5015928;28;20182;-71
2021/09/27 08:22:49;;;;;;;13.57;11.85;;;;;;;;;;5015019;28;20187;-72
2021/09/27 08:25:15;;;;;;;15.25;12.60;;;;;;;;;;5013350;28;20256;-71
2021/09/27 08:27:41;;;;;;;13.95;12.55;;;;;;;;;;5014465;28;20233;-71
2021/09/27 08:30:07;;;;;;;14.15;12.32;;;;;;;;;;5016898;28;20213;-71
2021/09/27 08:32:32;;;;;;;14.57;12.65;;;;;;;;;;5016663;28;20186;-71
2021/09/27 08:34:57;;;;;;;18.35;12.25;;;;;;;;;;5031110;28;20178;-71
2021/09/27 08:37:23;;;;;;;13.63;12.23;;;;;;;;;;5030114;28;20175;-71
2021/09/27 08:39:49;;;;;;;12.00;10.70;;;;;;;;;;5030333;28;20516;-71
2021/09/27 08:42:41;;;;;;;11.27;10.07;;;;;;;;;;5027206;28;21899;-71
2021/09/27 08:45:09;;;;;;;12.52;10.48;;;;;;;;;;5028356;28;20191;-71
2021/09/27 08:47:40;;;;;;;10.65;9.65;;;;;;;;;;5028506;28;20232;-71
2021/09/27 08:50:11;;;;;;;11.82;10.57;;;;;;;;;;5020606;28;20215;-71
2021/09/27 08:52:38;;;;;;;10.70;9.60;;;;;;;;;;5029062;28;20170;-71
2021/09/27 08:55:08;;;;;;;11.88;9.75;;;;;;;;;;5028170;28;20187;-71
2021/09/27 08:57:52;;;;;;;17.38;10.70;;;;;;;;;;5029670;28;20179;-71
2021/09/27 09:00:17;;;;;;;12.70;9.65;;;;;;;;;;5028361;28;20178;-71
2021/09/27 09:02:42;;;;;;;11.38;10.18;;;;;;;;;;5027887;28;20171;-71
2021/09/27 09:05:10;;;;;;;11.93;9.40;;;;;;;;;;5029889;28;20266;-71
2021/09/27 09:07:38;;;;;;;9.98;8.93;;;;;;;;;;5027824;28;20182;-71
2021/09/27 09:10:05;;;;;;;9.85;8.85;;;;;;;;;;5024029;28;20214;-71
2021/09/27 09:12:35;;;;;;;12.82;9.13;;;;;;;;;;5029884;28;20261;-71
2021/09/27 09:15:13;;;;;;;13.70;9.70;;;;;;;;;;5031725;28;20182;-71
2021/09/27 09:17:49;;;;;;;11.05;9.40;;;;;;;;;;5023375;28;20269;-71
2021/09/27 09:20:22;;;;;;;10.30;9.27;;;;;;;;;;5026625;28;20206;-71
2021/09/27 09:22:48;;;;;;;12.55;9.70;;;;;;;;;;5023614;28;20274;-71
2021/09/27 09:25:33;;;;;;;9.75;8.75;;;;;;;;;;5011260;28;20265;-71
2021/09/27 09:27:59;;;;;;;11.77;9.25;;;;;;;;;;5013720;28;20217;-71
2021/09/27 09:30:27;;;;;;;9.77;8.57;;;;;;;;;;5011728;28;20664;-71
2021/09/27 09:32:53;;;;;;;8.90;7.97;;;;;;;;;;5013167;28;21576;-71
2021/09/27 09:35:23;;;;;;;8.27;7.40;;;;;;;;;;5013468;28;20170;-71
2021/09/27 09:37:54;;;;;;;10.52;7.47;;;;;;;;;;5012975;28;20274;-71
2021/09/27 09:40:31;;;;;;;8.93;6.72;;;;;;;;;;5014266;28;20533;-71
2021/09/27 09:43:01;;;;;;;7.68;6.30;;;;;;;;;;5025098;28;20208;-71
2021/09/27 09:45:32;;;;;;;8.25;7.47;;;;;;;;;;5011603;28;20191;-71
2021/09/27 09:48:18;;;;;;;7.63;6.78;;;;;;;;;;5014354;28;20186;-71
2021/09/27 09:50:44;;;;;;;7.65;6.88;;;;;;;;;;5012069;28;20202;-71
2021/09/27 09:53:15;;;;;;;9.10;6.82;;;;;;;;;;5010781;28;20356;-71
2021/09/27 09:55:43;;;;;;;8.05;6.78;;;;;;;;;;5018059;28;20263;-71
2021/09/27 09:58:12;;;;;;;8.30;6.50;;;;;;;;;;5019050;28;20301;-71
2021/09/27 10:00:44;;;;;;;8.45;6.03;;;;;;;;;;5023834;28;20684;-71
2021/09/27 10:03:14;;;;;;;6.28;5.65;;;;;;;;;;5012719;28;20182;-70
2021/09/27 10:05:54;;;;;;;6.90;5.40;;;;;;;;;;5017718;28;20830;-71
2021/09/27 10:08:21;;;;;;;6.72;5.05;;;;;;;;;;5011235;28;20639;-73
2021/09/27 10:11:01;;;;;;;8.93;5.40;;;;;;;;;;5011887;28;20880;-71
2021/09/27 10:13:29;;;;;;;6.25;5.65;;;;;;;;;;5014249;28;20264;-71
2021/09/27 10:15:54;;;;;;;6.10;4.95;;;;;;;;;;5009571;28;20182;-70
2021/09/27 10:18:25;;;;;;;5.93;5.25;;;;;;;;;;5011484;28;20605;-70
2021/09/27 10:20:58;;;;;;;6.28;5.68;;;;;;;;;;5012492;28;20264;-70
2021/09/27 10:23:28;;;;;;;7.70;5.30;;;;;;;;;;5009840;28;20186;-70
2021/09/27 10:25:53;;;;;;;6.00;5.07;;;;;;;;;;5013535;28;20186;-70
2021/09/27 10:28:20;;;;;;;7.53;4.97;;;;;;;;;;5012090;28;20206;-70
2021/09/27 10:30:50;;;;;;;9.07;5.18;;;;;;;;;;5012540;28;20186;-71
2021/09/27 10:33:18;;;;;;;5.22;4.63;;;;;;;;;;5013596;28;20225;-70
2021/09/27 10:35:51;;;;;;;7.07;4.95;;;;;;;;;;5021994;28;20178;-70
2021/09/27 10:38:19;;;;;;;4.63;4.22;;;;;;;;;;5029177;28;20197;-70
2021/09/27 10:40:46;;;;;;;8.23;4.45;;;;;;;;;;5025301;28;20232;-70
2021/09/27 10:43:14;;;;;;;7.32;4.78;;;;;;;;;;5027363;28;20182;-70
2021/09/27 10:45:42;;;;;;;5.97;4.38;;;;;;;;;;5025583;28;20220;-70
2021/09/27 10:48:08;;;;;;;4.47;3.60;;;;;;;;;;5025772;28;20177;-70
2021/09/27 10:50:36;;;;;;;6.50;4.82;;;;;;;;;;5023905;28;20256;-70
2021/09/27 10:53:22;;;;;;;9.18;5.05;;;;;;;;;;5027718;28;20206;-69
2021/09/27 10:55:47;;;;;;;6.65;5.75;;;;;;;;;;5025365;28;20191;-72
2021/09/27 10:58:27;;;;;;;7.18;4.65;;;;;;;;;;5024239;28;20202;-70
2021/09/27 11:00:53;;;;;;;6.47;4.45;;;;;;;;;;5026749;28;20292;-72
2021/09/27 11:03:25;;;;;;;7.32;6.35;;;;;;;;;;5030271;28;20264;-70
2021/09/27 11:05:54;;;;;;;9.30;6.07;;;;;;;;;;5032562;28;20186;-70
2021/09/27 11:08:31;;;;;;;18.33;14.93;;;;;;;;;;5031237;28;20201;-70
2021/09/27 11:10:57;;;;;;;8.75;5.10;;;;;;;;;;5025365;28;20178;-69
2021/09/27 11:13:33;;;;;;;12.20;9.77;;;;;;;;;;5029606;28;20202;-70
2021/09/27 11:15:59;;;;;;;4.25;3.80;;;;;;;;;;5030996;28;20182;-70
2021/09/27 11:18:29;;;;;;;5.20;3.55;;;;;;;;;;5039519;28;20194;-70
2021/09/27 11:20:54;;;;;;;5.60;3.65;;;;;;;;;;5016420;28;20234;-70
2021/09/27 11:23:20;;;;;;;5.10;3.78;;;;;;;;;;5014310;28;20199;-70
2021/09/27 11:26:04;;;;;;;5.72;3.60;;;;;;;;;;5015634;28;20186;-70
2021/09/27 11:28:41;;;;;;;4.80;3.65;;;;;;;;;;5021497;28;20237;-70
2021/09/27 11:31:15;;;;;;;7.25;3.85;;;;;;;;;;5016300;28;20220;-70
2021/09/27 11:33:41;;;;;;;5.78;3.08;;;;;;;;;;5013502;28;20295;-70
2021/09/27 11:36:22;;;;;;;4.13;2.63;;;;;;;;;;5014463;28;20183;-70
2021/09/27 11:38:48;;;;;;;4.47;3.10;;;;;;;;;;5012507;28;20626;-70
2021/09/27 11:41:14;;;;;;;5.28;3.10;;;;;;;;;;5012085;28;20195;-70
2021/09/27 11:43:48;;;;;;;6.03;3.70;;;;;;;;;;5014116;28;20247;-70
2021/09/27 11:46:16;;;;;;;4.32;2.70;;;;;;;;;;5014628;28;20642;-70
2021/09/27 11:48:56;;;;;;;5.40;2.85;;;;;;;;;;5013649;28;20211;-70
2021/09/27 11:51:41;;;;;;;3.85;2.13;;;;;;;;;;5014428;28;20225;-71
2021/09/27 11:54:06;;;;;;;3.70;2.40;;;;;;;;;;5014959;28;20264;-70
2021/09/27 11:56:46;;;;;;;3.47;2.33;;;;;;;;;;5011840;28;20182;-70
2021/09/27 11:59:16;;;;;;;5.20;2.22;;;;;;;;;;5011878;28;20673;-71
2021/09/27 12:01:57;;;;;;;4.35;2.40;;;;;;;;;;5014680;28;20174;-70
2021/09/27 12:04:31;;;;;;;4.85;2.38;;;;;;;;;;5012795;28;20174;-70
2021/09/27 12:06:58;;;;;;;4.63;1.85;;;;;;;;;;5016199;28;20193;-70
2021/09/27 12:09:30;;;;;;;3.28;2.25;;;;;;;;;;5012492;28;20972;-72
2021/09/27 12:11:57;;;;;;;4.50;2.08;;;;;;;;;;5015475;28;20337;-71
2021/09/27 12:14:42;;;;;;;4.90;2.13;;;;;;;;;;5012950;28;20247;-70
2021/09/27 12:17:08;;;;;;;5.47;2.00;;;;;;;;;;5013226;28;20214;-71
2021/09/27 12:19:44;;;;;;;3.05;2.03;;;;;;;;;;5016387;28;20299;-70
2021/09/27 12:22:11;;;;;;;4.00;1.90;;;;;;;;;;5013831;28;20204;-69
2021/09/27 12:24:38;;;;;;;5.28;2.20;;;;;;;;;;5014571;28;20191;-70
2021/09/27 12:27:03;;;;;;;3.10;2.08;;;;;;;;;;5015588;28;20190;-70
2021/09/27 12:29:28;;;;;;;2.75;2.17;;;;;;;;;;5014653;28;20210;-69
2021/09/27 12:32:01;;;;;;;3.43;2.20;;;;;;;;;;5011678;28;20194;-69
2021/09/27 12:34:35;;;;;;;3.25;2.10;;;;;;;;;;5031629;28;20458;-69
2021/09/27 12:37:01;;;;;;;5.38;2.38;;;;;;;;;;5028173;28;20183;-70
2021/09/27 12:39:28;;;;;;;3.45;2.65;;;;;;;;;;5030720;28;20269;-69
2021/09/27 12:41:55;;;;;;;4.85;2.45;;;;;;;;;;5030154;28;20671;-69
2021/09/27 12:44:26;;;;;;;3.80;2.80;;;;;;;;;;5029199;28;20206;-69
2021/09/27 12:46:53;;;;;;;2.60;2.40;;;;;;;;;;5026748;28;20261;-69
2021/09/27 12:49:21;;;;;;;5.65;2.60;;;;;;;;;;5028383;28;20581;-74
2021/09/27 12:51:50;;;;;;;3.72;2.60;;;;;;;;;;5028378;28;20261;-70
2021/09/27 12:54:22;;;;;;;3.15;2.63;;;;;;;;;;5027251;28;20205;-70
2021/09/27 12:56:47;;;;;;;3.67;2.33;;;;;;;;;;5030766;28;20205;-70
2021/09/27 12:59:14;;;;;;;2.88;2.67;;;;;;;;;;5031500;28;20221;-70
2021/09/27 13:01:41;;;;;;;5.07;3.03;;;;;;;;;;5031894;28;20185;-70
2021/09/27 13:04:11;;;;;;;3.00;2.50;;;;;;;;;;5034290;28;20461;-70
2021/09/27 13:06:48;;;;;;;3.50;2.95;;;;;;;;;;5024021;28;20372;-70
2021/09/27 13:09:34;;;;;;;4.90;3.05;;;;;;;;;;5012287;28;20230;-71
2021/09/27 13:12:21;;;;;;;4.43;3.50;;;;;;;;;;5005591;28;20301;-70
2021/09/27 13:14:51;;;;;;;4.50;3.58;;;;;;;;;;5012643;28;20217;-70
2021/09/27 13:17:19;;;;;;;6.57;4.10;;;;;;;;;;5011569;28;20186;-71
2021/09/27 13:19:46;;;;;;;5.72;4.25;;;;;;;;;;5015157;28;20208;-72
2021/09/27 13:22:13;;;;;;;6.78;4.38;;;;;;;;;;5015457;28;20851;-73
2021/09/27 13:24:39;;;;;;;6.15;5.10;;;;;;;;;;5012173;28;20670;-71
2021/09/27 13:27:10;;;;;;;5.97;4.70;;;;;;;;;;5012966;28;20186;-71
2021/09/27 13:29:38;;;;;;;7.30;4.78;;;;;;;;;;5012020;28;20206;-74
2021/09/27 13:32:10;;;;;;;7.47;5.07;;;;;;;;;;5012881;28;20190;-73
2021/09/27 13:34:40;;;;;;;5.13;4.72;;;;;;;;;;5011674;28;20197;-72
2021/09/27 13:37:19;;;;;;;5.88;4.30;;;;;;;;;;5010021;28;20182;-73
2021/09/27 13:39:46;;;;;;;5.18;4.68;;;;;;;;;;5011758;28;20202;-72
2021/09/27 13:42:11;;;;;;;4.53;4.03;;;;;;;;;;5011671;28;20205;-72
2021/09/27 13:44:39;;;;;;;5.97;4.43;;;;;;;;;;5012485;28;20961;-73
2021/09/27 13:47:06;;;;;;;5.25;4.15;;;;;;;;;;5012241;28;20629;-73
2021/09/27 13:49:32;;;;;;;5.50;4.97;;;;;;;;;;5009789;28;20546;-74
2021/09/27 13:51:58;;;;;;;5.57;4.30;;;;;;;;;;5009570;28;20200;-76
2021/09/27 13:54:23;;;;;;;4.53;4.13;;;;;;;;;;5011447;28;20198;-74
2021/09/27 13:56:50;;;;;;;4.18;3.50;;;;;;;;;;5012892;28;20698;-73
2021/09/27 13:59:15;;;;;;;4.00;3.70;;;;;;;;;;5012394;28;20198;-75
2021/09/27 14:01:40;;;;;;;5.50;3.50;;;;;;;;;;5012420;28;20467;-75
2021/09/27 14:04:05;;;;;;;4.10;3.38;;;;;;;;;;5013902;28;20186;-77
2021/09/27 14:06:32;;;;;;;4.73;4.23;;;;;;;;;;5013667;28;20197;-77
2021/09/27 14:08:58;;;;;;;5.28;3.60;;;;;;;;;;5026153;23;20595;-76
2021/09/27 14:11:24;;;;;;;3.60;2.95;;;;;;;;;;5033147;28;20182;-76
2021/09/27 14:13:50;;;;;;;3.50;2.65;;;;;;;;;;5037204;28;20206;-77
2021/09/27 14:16:16;;;;;;;2.85;1.95;;;;;;;;;;5033382;28;20216;-76
2021/09/27 14:18:42;;;;;;;2.30;2.10;;;;;;;;;;5034954;28;20260;-76
2021/09/27 14:21:08;;;;;;;1.95;1.75;;;;;;;;;;5031371;28;20196;-76
2021/09/27 14:23:33;;;;;;;2.17;1.55;;;;;;;;;;5032533;28;20687;-76
2021/09/27 14:25:59;;;;;;;2.67;1.55;;;;;;;;;;5031066;28;20674;-77
2021/09/27 14:28:26;;;;;;;2.65;1.38;;;;;;;;;;5030220;28;20182;-74
2021/09/27 14:30:51;;;;;;;3.30;1.33;;;;;;;;;;5032294;28;20182;-76
2021/09/27 14:33:17;;;;;;;5.43;1.52;;;;;;;;;;5031841;28;20663;-75
2021/09/27 14:35:42;;;;;;;3.88;1.00;;;;;;;;;;5042314;28;20264;-76
2021/09/27 14:38:08;;;;;;;4.65;1.38;;;;;;;;;;5048611;28;20177;-76
2021/09/27 14:40:33;;;;;;;6.45;1.63;;;;;;;;;;5048429;28;20283;-76
2021/09/27 14:42:59;;;;;;;4.93;1.13;;;;;;;;;;5053332;28;20300;-75